createdAt,value
2018-04-26T00:00:27.397Z,0.00
2018-04-26T00:01:27.409Z,0.00
2018-04-26T00:02:27.423Z,0.00
2018-04-26T00:03:27.440Z,0.00
2018-04-26T00:04:27.461Z,0.00
2018-04-26T00:05:27.476Z,0.00
2018-04-26T00:06:27.489Z,0.00
2018-04-26T00:07:27.504Z,0.00
2018-04-26T00:08:27.535Z,0.00
2018-04-26T00:09:27.542Z,0.00
2018-04-26T00:10:27.556Z,0.00
2018-04-26T00:11:27.582Z,0.00
2018-04-26T00:12:27.595Z,0.00
2018-04-26T00:13:27.613Z,0.00
2018-04-26T00:14:27.623Z,0.00
2018-04-26T00:15:27.662Z,0.00
2018-04-26T00:16:27.663Z,0.00
2018-04-26T00:17:27.676Z,0.00
2018-04-26T00:18:27.690Z,0.00
2018-04-26T00:19:27.716Z,0.00
2018-04-26T00:20:27.729Z,0.00
2018-04-26T00:21:27.746Z,0.00
2018-04-26T00:22:27.757Z,0.00
2018-04-26T00:23:27.782Z,0.00
2018-04-26T00:24:27.795Z,0.00
2018-04-26T00:25:27.810Z,0.00
2018-04-26T00:26:27.827Z,0.00
2018-04-26T00:27:27.849Z,0.00
2018-04-26T00:28:27.861Z,0.00
2018-04-26T00:29:27.876Z,0.00
2018-04-26T00:30:27.889Z,0.00
2018-04-26T00:31:27.916Z,0.00
2018-04-26T00:32:27.929Z,0.00
2018-04-26T00:33:27.941Z,0.00
2018-04-26T00:34:27.959Z,0.00
2018-04-26T00:35:27.982Z,0.00
2018-04-26T00:36:27.995Z,0.00
2018-04-26T00:37:28.009Z,0.00
2018-04-26T00:38:28.022Z,0.00
2018-04-26T00:39:28.048Z,0.00
2018-04-26T00:40:28.061Z,0.00
2018-04-26T00:41:28.079Z,0.00
2018-04-26T00:42:28.101Z,0.00
2018-04-26T00:43:28.120Z,0.00
2018-04-26T00:44:28.129Z,0.00
2018-04-26T00:45:28.142Z,0.00
2018-04-26T00:46:28.155Z,0.00
2018-04-26T00:47:28.171Z,0.00
2018-04-26T00:48:28.196Z,0.00
2018-04-26T00:49:28.221Z,0.00
2018-04-26T00:50:28.223Z,0.00
2018-04-26T00:51:28.236Z,0.00
2018-04-26T00:52:28.261Z,0.00
2018-04-26T00:53:28.276Z,0.00
2018-04-26T00:54:28.289Z,0.00
2018-04-26T00:55:28.303Z,0.00
2018-04-26T00:56:28.328Z,0.00
2018-04-26T00:57:28.340Z,0.00
2018-04-26T00:58:28.356Z,0.00
2018-04-26T00:59:28.368Z,0.00
2018-04-26T01:00:28.384Z,0.00
2018-04-26T01:01:28.410Z,0.00
2018-04-26T01:02:28.421Z,0.00
2018-04-26T01:03:28.436Z,0.00
2018-04-26T01:04:28.450Z,0.00
2018-04-26T01:05:28.475Z,0.00
2018-04-26T01:06:28.495Z,0.00
2018-04-26T01:07:28.501Z,0.00
2018-04-26T01:08:28.516Z,0.00
2018-04-26T01:09:28.528Z,0.00
2018-04-26T01:10:28.555Z,0.00
2018-04-26T01:11:28.570Z,0.00
2018-04-26T01:12:28.582Z,0.00
2018-04-26T01:13:28.596Z,0.00
2018-04-26T01:14:28.610Z,0.00
2018-04-26T01:15:28.635Z,0.00
2018-04-26T01:16:28.649Z,0.00
2018-04-26T01:17:28.662Z,0.00
2018-04-26T01:18:28.675Z,0.00
2018-04-26T01:19:28.689Z,0.00
2018-04-26T01:20:28.716Z,0.00
2018-04-26T01:21:28.728Z,0.00
2018-04-26T01:22:28.742Z,0.00
2018-04-26T01:23:28.767Z,0.00
2018-04-26T01:24:28.770Z,0.00
2018-04-26T01:25:28.796Z,0.00
2018-04-26T01:26:28.809Z,0.00
2018-04-26T01:27:28.822Z,0.00
2018-04-26T01:28:28.836Z,0.00
2018-04-26T01:29:28.862Z,0.00
2018-04-26T01:30:28.876Z,0.00
2018-04-26T01:31:28.889Z,0.00
2018-04-26T01:32:28.903Z,0.00
2018-04-26T01:33:28.917Z,0.00
2018-04-26T01:34:28.989Z,0.00
2018-04-26T01:35:28.955Z,0.00
2018-04-26T01:36:28.973Z,0.00
2018-04-26T01:37:28.984Z,0.00
2018-04-26T01:38:28.997Z,0.00
2018-04-26T01:39:29.010Z,0.00
2018-04-26T01:40:29.025Z,0.00
2018-04-26T01:41:29.051Z,0.00
2018-04-26T01:42:29.062Z,0.00
2018-04-26T01:43:29.079Z,0.00
2018-04-26T01:44:29.089Z,0.00
2018-04-26T01:45:29.103Z,0.00
2018-04-26T01:46:29.117Z,0.00
2018-04-26T01:47:29.143Z,0.00
2018-04-26T01:48:29.157Z,0.00
2018-04-26T01:49:29.182Z,0.00
2018-04-26T01:50:29.184Z,0.00
2018-04-26T01:51:29.196Z,0.00
2018-04-26T01:52:29.222Z,0.00
2018-04-26T01:53:29.236Z,0.00
2018-04-26T01:54:29.249Z,0.00
2018-04-26T01:55:29.265Z,0.00
2018-04-26T01:56:29.278Z,0.00
2018-04-26T01:57:29.291Z,0.00
2018-04-26T01:58:29.305Z,0.00
2018-04-26T01:59:29.330Z,0.00
2018-04-26T02:00:29.343Z,0.00
2018-04-26T02:01:29.358Z,0.00
2018-04-26T02:02:29.370Z,0.00
2018-04-26T02:03:29.387Z,0.00
2018-04-26T02:04:29.399Z,0.00
2018-04-26T02:05:29.424Z,0.00
2018-04-26T02:06:29.437Z,0.00
2018-04-26T02:07:29.452Z,0.00
2018-04-26T02:08:29.464Z,0.00
2018-04-26T02:09:29.478Z,0.00
2018-04-26T02:10:29.490Z,0.00
2018-04-26T02:11:29.516Z,0.00
2018-04-26T02:12:29.533Z,0.00
2018-04-26T02:13:29.544Z,0.00
2018-04-26T02:14:29.559Z,0.00
2018-04-26T02:15:29.571Z,0.00
2018-04-26T02:16:29.585Z,0.00
2018-04-26T02:17:29.599Z,0.00
2018-04-26T02:18:29.624Z,0.00
2018-04-26T02:19:29.638Z,0.00
2018-04-26T02:20:29.652Z,0.00
2018-04-26T02:21:29.666Z,0.00
2018-04-26T02:22:29.680Z,0.00
2018-04-26T02:23:29.694Z,0.00
2018-04-26T02:24:29.723Z,0.00
2018-04-26T02:25:29.732Z,0.00
2018-04-26T02:26:29.746Z,0.00
2018-04-26T02:27:29.758Z,0.00
2018-04-26T02:28:29.772Z,0.00
2018-04-26T02:29:29.785Z,0.00
2018-04-26T02:30:29.800Z,0.00
2018-04-26T02:31:29.813Z,0.00
2018-04-26T02:32:29.828Z,0.00
2018-04-26T02:33:29.852Z,0.00
2018-04-26T02:34:29.866Z,0.00
2018-04-26T02:35:29.880Z,0.00
2018-04-26T02:36:29.895Z,0.00
2018-04-26T02:37:29.908Z,0.00
2018-04-26T02:38:29.919Z,0.00
2018-04-26T02:39:29.934Z,0.00
2018-04-26T02:40:29.961Z,0.00
2018-04-26T02:41:29.979Z,0.00
2018-04-26T02:42:29.986Z,0.00
2018-04-26T02:43:30.005Z,0.00
2018-04-26T02:44:30.013Z,0.00
2018-04-26T02:45:30.040Z,0.00
2018-04-26T02:46:30.041Z,0.00
2018-04-26T02:47:30.055Z,0.00
2018-04-26T02:48:30.080Z,0.00
2018-04-26T02:49:30.095Z,0.00
2018-04-26T02:50:30.106Z,0.00
2018-04-26T02:51:30.122Z,0.00
2018-04-26T02:52:30.134Z,0.00
2018-04-26T02:53:30.147Z,0.00
2018-04-26T02:54:30.160Z,0.00
2018-04-26T02:55:30.187Z,0.00
2018-04-26T02:56:30.200Z,0.00
2018-04-26T02:57:30.214Z,0.00
2018-04-26T02:58:30.227Z,0.00
2018-04-26T02:59:30.240Z,0.00
2018-04-26T03:00:30.255Z,0.00
2018-04-26T03:01:30.268Z,0.00
2018-04-26T03:02:30.293Z,0.00
2018-04-26T03:03:30.307Z,0.00
2018-04-26T03:04:30.324Z,0.00
2018-04-26T03:05:30.335Z,0.00
2018-04-26T03:06:30.347Z,0.00
2018-04-26T03:07:30.361Z,4.00
2018-04-26T03:08:30.375Z,4.00
2018-04-26T03:09:30.406Z,0.00
2018-04-26T03:10:30.414Z,0.00
2018-04-26T03:11:30.429Z,4.00
2018-04-26T03:12:30.443Z,4.00
2018-04-26T03:13:30.455Z,4.00
2018-04-26T03:14:30.469Z,4.00
2018-04-26T03:15:30.483Z,4.00
2018-04-26T03:16:30.508Z,8.00
2018-04-26T03:17:30.528Z,4.00
2018-04-26T03:18:30.534Z,8.00
2018-04-26T03:19:30.549Z,12.00
2018-04-26T03:20:30.561Z,12.00
2018-04-26T03:21:30.575Z,16.00
2018-04-26T03:22:30.590Z,16.00
2018-04-26T03:23:30.614Z,20.00
2018-04-26T03:24:30.632Z,20.00
2018-04-26T03:25:30.641Z,24.00
2018-04-26T03:26:30.656Z,28.00
2018-04-26T03:27:30.668Z,32.00
2018-04-26T03:28:30.682Z,40.00
2018-04-26T03:29:30.696Z,44.00
2018-04-26T03:30:30.723Z,52.00
2018-04-26T03:31:30.736Z,56.00
2018-04-26T03:32:30.762Z,64.00
2018-04-26T03:33:30.762Z,72.00
2018-04-26T03:34:30.775Z,84.00
2018-04-26T03:35:30.789Z,92.00
2018-04-26T03:36:30.803Z,104.00
2018-04-26T03:37:30.828Z,116.00
2018-04-26T03:38:30.846Z,132.00
2018-04-26T03:39:30.856Z,144.00
2018-04-26T03:40:30.869Z,160.00
2018-04-26T03:41:30.883Z,176.00
2018-04-26T03:42:31.146Z,196.00
2018-04-26T03:43:30.910Z,220.00
2018-04-26T03:44:30.928Z,236.00
2018-04-26T03:45:30.950Z,252.00
2018-04-26T03:46:30.962Z,264.00
2018-04-26T03:47:30.977Z,288.00
2018-04-26T03:48:30.991Z,324.00
2018-04-26T03:49:31.005Z,364.00
2018-04-26T03:50:31.017Z,384.00
2018-04-26T03:51:31.031Z,396.00
2018-04-26T03:52:31.048Z,428.00
2018-04-26T03:53:31.082Z,460.00
2018-04-26T03:54:31.084Z,496.00
2018-04-26T03:55:31.099Z,536.00
2018-04-26T03:56:31.122Z,576.00
2018-04-26T03:57:31.127Z,616.00
2018-04-26T03:58:31.197Z,656.00
2018-04-26T03:59:31.151Z,696.00
2018-04-26T04:00:31.169Z,736.00
2018-04-26T04:01:31.197Z,764.00
2018-04-26T04:02:31.204Z,804.00
2018-04-26T04:03:31.219Z,868.00
2018-04-26T04:04:31.232Z,964.00
2018-04-26T04:05:31.245Z,1072.00
2018-04-26T04:06:31.272Z,1156.00
2018-04-26T04:07:31.272Z,1228.00
2018-04-26T04:08:31.288Z,1280.00
2018-04-26T04:09:31.311Z,1332.00
2018-04-26T04:10:31.325Z,1384.00
2018-04-26T04:11:31.340Z,1388.00
2018-04-26T04:12:31.356Z,1332.00
2018-04-26T04:13:31.365Z,1300.00
2018-04-26T04:14:31.389Z,1148.00
2018-04-26T04:15:31.392Z,952.00
2018-04-26T04:16:31.419Z,832.00
2018-04-26T04:17:31.434Z,764.00
2018-04-26T04:18:31.446Z,752.00
2018-04-26T04:19:31.461Z,800.00
2018-04-26T04:20:31.472Z,900.00
2018-04-26T04:21:31.490Z,988.00
2018-04-26T04:22:31.501Z,1100.00
2018-04-26T04:23:31.527Z,1188.00
2018-04-26T04:24:31.539Z,1180.00
2018-04-26T04:25:31.552Z,1176.00
2018-04-26T04:26:31.567Z,1228.00
2018-04-26T04:27:31.580Z,1460.00
2018-04-26T04:28:31.594Z,1744.00
2018-04-26T04:29:31.620Z,1888.00
2018-04-26T04:30:31.633Z,1832.00
2018-04-26T04:31:31.648Z,2032.00
2018-04-26T04:32:31.660Z,2352.00
2018-04-26T04:33:31.674Z,2788.00
2018-04-26T04:34:31.687Z,3232.00
2018-04-26T04:35:31.712Z,3500.00
2018-04-26T04:36:31.727Z,3644.00
2018-04-26T04:37:31.740Z,3796.00
2018-04-26T04:38:31.754Z,3960.00
2018-04-26T04:39:31.767Z,4028.00
2018-04-26T04:40:31.807Z,4072.00
2018-04-26T04:41:31.807Z,4172.00
2018-04-26T04:42:31.826Z,4296.00
2018-04-26T04:43:31.834Z,4432.00
2018-04-26T04:44:31.849Z,4564.00
2018-04-26T04:45:31.876Z,4664.00
2018-04-26T04:46:31.887Z,4816.00
2018-04-26T04:47:31.901Z,5004.00
2018-04-26T04:48:31.914Z,5212.00
2018-04-26T04:49:31.941Z,5332.00
2018-04-26T04:50:31.955Z,5380.00
2018-04-26T04:51:31.967Z,5524.00
2018-04-26T04:52:31.981Z,5688.00
2018-04-26T04:53:32.011Z,5604.00
2018-04-26T04:54:32.022Z,5404.00
2018-04-26T04:55:32.034Z,5272.00
2018-04-26T04:56:32.048Z,5132.00
2018-04-26T04:57:32.073Z,4668.00
2018-04-26T04:58:32.086Z,4008.00
2018-04-26T04:59:32.101Z,3624.00
2018-04-26T05:00:32.127Z,3784.00
2018-04-26T05:01:32.139Z,3836.00
2018-04-26T05:02:32.154Z,3712.00
2018-04-26T05:03:32.166Z,3492.00
2018-04-26T05:04:32.181Z,3200.00
2018-04-26T05:05:32.207Z,2968.00
2018-04-26T05:06:32.219Z,2792.00
2018-04-26T05:07:32.233Z,2740.00
2018-04-26T05:08:32.260Z,2984.00
2018-04-26T05:09:32.273Z,3432.00
2018-04-26T05:10:32.287Z,3932.00
2018-04-26T05:11:32.301Z,4124.00
2018-04-26T05:12:32.326Z,3648.00
2018-04-26T05:13:32.339Z,2644.00
2018-04-26T05:14:32.354Z,2016.00
2018-04-26T05:15:32.379Z,1748.00
2018-04-26T05:16:32.394Z,1608.00
2018-04-26T05:17:32.406Z,1580.00
2018-04-26T05:18:32.433Z,1532.00
2018-04-26T05:19:32.447Z,1636.00
2018-04-26T05:20:32.473Z,1908.00
2018-04-26T05:21:32.485Z,2044.00
2018-04-26T05:22:32.501Z,1876.00
2018-04-26T05:23:32.512Z,1728.00
2018-04-26T05:24:32.526Z,1724.00
2018-04-26T05:25:32.618Z,2064.00
2018-04-26T05:26:32.566Z,2348.00
2018-04-26T05:27:32.580Z,2520.00
2018-04-26T05:28:32.606Z,2656.00
2018-04-26T05:29:32.618Z,2736.00
2018-04-26T05:30:32.635Z,2832.00
2018-04-26T05:31:32.659Z,3148.00
2018-04-26T05:32:32.672Z,3676.00
2018-04-26T05:33:32.691Z,4200.00
2018-04-26T05:34:32.699Z,4640.00
2018-04-26T05:35:32.729Z,4952.00
2018-04-26T05:36:32.739Z,4968.00
2018-04-26T05:37:32.753Z,4792.00
2018-04-26T05:38:32.777Z,4568.00
2018-04-26T05:39:32.798Z,4240.00
2018-04-26T05:40:32.819Z,3952.00
2018-04-26T05:41:32.830Z,4140.00
2018-04-26T05:42:32.845Z,4816.00
2018-04-26T05:43:32.858Z,5752.00
2018-04-26T05:44:32.884Z,6944.00
2018-04-26T05:45:32.898Z,8168.00
2018-04-26T05:46:32.910Z,9220.00
2018-04-26T05:47:32.926Z,9292.00
2018-04-26T05:48:32.951Z,8204.00
2018-04-26T05:49:32.965Z,6996.00
2018-04-26T05:50:32.980Z,6576.00
2018-04-26T05:51:33.005Z,6772.00
2018-04-26T05:52:33.019Z,7148.00
2018-04-26T05:53:33.043Z,7784.00
2018-04-26T05:54:33.058Z,8492.00
2018-04-26T05:55:33.072Z,9224.00
2018-04-26T05:56:33.099Z,9496.00
2018-04-26T05:57:33.111Z,9368.00
2018-04-26T05:58:33.126Z,9120.00
2018-04-26T05:59:33.151Z,9056.00
2018-04-26T06:00:33.169Z,9084.00
2018-04-26T06:01:33.178Z,9052.00
2018-04-26T06:02:33.203Z,8804.00
2018-04-26T06:03:33.234Z,8440.00
2018-04-26T06:04:33.233Z,8128.00
2018-04-26T06:05:33.257Z,7672.00
2018-04-26T06:06:33.270Z,6832.00
2018-04-26T06:07:33.296Z,6240.00
2018-04-26T06:08:33.310Z,6296.00
2018-04-26T06:09:33.323Z,6680.00
2018-04-26T06:10:33.352Z,6596.00
2018-04-26T06:11:33.361Z,5800.00
2018-04-26T06:12:33.387Z,5180.00
2018-04-26T06:13:33.405Z,5804.00
2018-04-26T06:14:33.428Z,6748.00
2018-04-26T06:15:33.442Z,6888.00
2018-04-26T06:16:33.456Z,6240.00
2018-04-26T06:17:33.482Z,5656.00
2018-04-26T06:18:33.495Z,5804.00
2018-04-26T06:19:33.522Z,6392.00
2018-04-26T06:20:33.534Z,6868.00
2018-04-26T06:21:33.561Z,7536.00
2018-04-26T06:22:33.573Z,8460.00
2018-04-26T06:23:33.588Z,9372.00
2018-04-26T06:24:33.614Z,9808.00
2018-04-26T06:25:33.627Z,9552.00
2018-04-26T06:26:33.641Z,9168.00
2018-04-26T06:27:33.668Z,8928.00
2018-04-26T06:28:33.680Z,8964.00
2018-04-26T06:29:33.711Z,9168.00
2018-04-26T06:30:33.733Z,9468.00
2018-04-26T06:31:33.732Z,9876.00
2018-04-26T06:32:33.761Z,10684.00
2018-04-26T06:33:33.773Z,11540.00
2018-04-26T06:34:33.800Z,12152.00
2018-04-26T06:35:33.813Z,12292.00
2018-04-26T06:36:33.840Z,11980.00
2018-04-26T06:37:33.853Z,11364.00
2018-04-26T06:38:33.866Z,10624.00
2018-04-26T06:39:33.891Z,9824.00
2018-04-26T06:40:33.905Z,9148.00
2018-04-26T06:41:33.936Z,8668.00
2018-04-26T06:42:33.944Z,8340.00
2018-04-26T06:43:33.970Z,7660.00
2018-04-26T06:44:33.989Z,6984.00
2018-04-26T06:45:34.011Z,6132.00
2018-04-26T06:46:34.024Z,5780.00
2018-04-26T06:47:34.037Z,6244.00
2018-04-26T06:48:34.063Z,6796.00
2018-04-26T06:49:34.077Z,7400.00
2018-04-26T06:50:34.102Z,8032.00
2018-04-26T06:51:34.116Z,7968.00
2018-04-26T06:52:34.143Z,7288.00
2018-04-26T06:53:34.181Z,6836.00
2018-04-26T06:54:34.194Z,6516.00
2018-04-26T06:55:34.196Z,6408.00
2018-04-26T06:56:34.223Z,6704.00
2018-04-26T06:57:34.235Z,7060.00
2018-04-26T06:58:34.250Z,7528.00
2018-04-26T06:59:34.275Z,8316.00
2018-04-26T07:00:34.348Z,9240.00
2018-04-26T07:01:34.326Z,9736.00
2018-04-26T07:02:34.328Z,9380.00
2018-04-26T07:03:34.355Z,8456.00
2018-04-26T07:04:34.367Z,7384.00
2018-04-26T07:05:34.395Z,6348.00
2018-04-26T07:06:34.409Z,5800.00
2018-04-26T07:07:34.434Z,5884.00
2018-04-26T07:08:34.447Z,5952.00
2018-04-26T07:09:34.462Z,5808.00
2018-04-26T07:10:34.487Z,5448.00
2018-04-26T07:11:34.507Z,4896.00
2018-04-26T07:12:34.525Z,4588.00
2018-04-26T07:13:34.539Z,4592.00
2018-04-26T07:14:34.565Z,4480.00
2018-04-26T07:15:34.580Z,4164.00
2018-04-26T07:16:34.605Z,3796.00
2018-04-26T07:17:34.619Z,3836.00
2018-04-26T07:18:34.630Z,4816.00
2018-04-26T07:19:34.661Z,6160.00
2018-04-26T07:20:34.675Z,7212.00
2018-04-26T07:21:34.699Z,8224.00
2018-04-26T07:22:34.711Z,9444.00
2018-04-26T07:23:34.724Z,11168.00
2018-04-26T07:24:34.750Z,12856.00
2018-04-26T07:25:34.764Z,14736.00
2018-04-26T07:26:34.789Z,17300.00
2018-04-26T07:27:34.804Z,18944.00
2018-04-26T07:28:34.817Z,20608.00
2018-04-26T07:29:34.843Z,20640.00
2018-04-26T07:30:34.856Z,13288.00
2018-04-26T07:31:34.883Z,12660.00
2018-04-26T07:32:34.895Z,53344.00
2018-04-26T07:33:34.922Z,51712.00
2018-04-26T07:34:34.936Z,73952.00
2018-04-26T07:35:34.969Z,72128.00
2018-04-26T07:36:34.975Z,56576.00
2018-04-26T07:37:35.001Z,60768.00
2018-04-26T07:38:35.015Z,57600.00
2018-04-26T07:39:35.040Z,33952.00
2018-04-26T07:40:35.054Z,16996.00
2018-04-26T07:41:35.092Z,22464.00
2018-04-26T07:42:35.094Z,50656.00
2018-04-26T07:43:35.120Z,49952.00
2018-04-26T07:44:35.145Z,49088.00
2018-04-26T07:45:35.158Z,34144.00
2018-04-26T07:46:35.185Z,48512.00
2018-04-26T07:47:35.200Z,59648.00
2018-04-26T07:48:35.224Z,32992.00
2018-04-26T07:49:35.250Z,57888.00
2018-04-26T07:50:35.278Z,46240.00
2018-04-26T07:51:35.290Z,39392.00
2018-04-26T07:52:35.316Z,63488.00
2018-04-26T07:53:35.341Z,55712.00
2018-04-26T07:54:35.382Z,32128.00
2018-04-26T07:55:35.383Z,53248.00
2018-04-26T07:56:35.407Z,58112.00
2018-04-26T07:57:35.434Z,48864.00
2018-04-26T07:58:35.459Z,36864.00
2018-04-26T07:59:35.473Z,33376.00
2018-04-26T08:00:35.498Z,29600.00
2018-04-26T08:01:35.565Z,25952.00
2018-04-26T08:02:35.555Z,27968.00
2018-04-26T08:03:35.577Z,34240.00
2018-04-26T08:04:35.602Z,33952.00
2018-04-26T08:05:35.620Z,29088.00
2018-04-26T08:06:35.642Z,26464.00
2018-04-26T08:07:35.668Z,24512.00
2018-04-26T08:08:35.694Z,21760.00
2018-04-26T08:09:35.720Z,22144.00
2018-04-26T08:10:35.734Z,25568.00
2018-04-26T08:11:35.761Z,30656.00
2018-04-26T08:12:35.789Z,30112.00
2018-04-26T08:13:35.811Z,26272.00
2018-04-26T08:14:35.838Z,23680.00
2018-04-26T08:15:35.855Z,28160.00
2018-04-26T08:16:35.878Z,30176.00
2018-04-26T08:17:35.904Z,25920.00
2018-04-26T08:18:35.930Z,19616.00
2018-04-26T08:19:35.982Z,14388.00
2018-04-26T08:20:35.986Z,10948.00
2018-04-26T08:21:35.995Z,8624.00
2018-04-26T08:22:36.022Z,6548.00
2018-04-26T08:23:36.060Z,4796.00
2018-04-26T08:24:36.072Z,4412.00
2018-04-26T08:25:36.087Z,4484.00
2018-04-26T08:26:36.118Z,4344.00
2018-04-26T08:27:36.140Z,3724.00
2018-04-26T08:28:36.165Z,3788.00
2018-04-26T08:29:36.179Z,6520.00
2018-04-26T08:30:36.286Z,12888.00
2018-04-26T08:31:36.231Z,16600.00
2018-04-26T08:32:36.255Z,14148.00
2018-04-26T08:33:36.270Z,10192.00
2018-04-26T08:34:36.297Z,8592.00
2018-04-26T08:35:36.311Z,9824.00
2018-04-26T08:36:36.348Z,13960.00
2018-04-26T08:37:36.361Z,14852.00
2018-04-26T08:38:36.375Z,11612.00
2018-04-26T08:39:36.402Z,8348.00
2018-04-26T08:40:36.427Z,7688.00
2018-04-26T08:41:36.440Z,8256.00
2018-04-26T08:42:36.466Z,11508.00
2018-04-26T08:43:36.481Z,13788.00
2018-04-26T08:44:36.506Z,14896.00
2018-04-26T08:45:36.551Z,14096.00
2018-04-26T08:46:36.546Z,12596.00
2018-04-26T08:47:36.571Z,10976.00
2018-04-26T08:48:36.584Z,10836.00
2018-04-26T08:49:36.611Z,10008.00
2018-04-26T08:50:36.637Z,7608.00
2018-04-26T08:51:36.650Z,5316.00
2018-04-26T08:52:36.676Z,3936.00
2018-04-26T08:53:36.691Z,4396.00
2018-04-26T08:54:36.716Z,5784.00
2018-04-26T08:55:36.743Z,7172.00
2018-04-26T08:56:36.754Z,8584.00
2018-04-26T08:57:36.784Z,6160.00
2018-04-26T08:58:36.795Z,3704.00
2018-04-26T08:59:36.822Z,3084.00
2018-04-26T09:00:36.834Z,3160.00
2018-04-26T09:01:36.860Z,2968.00
2018-04-26T09:02:36.873Z,2780.00
2018-04-26T09:03:36.900Z,2728.00
2018-04-26T09:04:36.912Z,2660.00
2018-04-26T09:05:36.940Z,2496.00
2018-04-26T09:06:36.971Z,2192.00
2018-04-26T09:07:36.978Z,2128.00
2018-04-26T09:08:36.991Z,1972.00
2018-04-26T09:09:37.031Z,1860.00
2018-04-26T09:10:37.032Z,2384.00
2018-04-26T09:11:37.046Z,2588.00
2018-04-26T09:12:37.070Z,2844.00
2018-04-26T09:13:37.085Z,3008.00
2018-04-26T09:14:37.111Z,3980.00
2018-04-26T09:15:37.134Z,5640.00
2018-04-26T09:16:37.150Z,5788.00
2018-04-26T09:17:37.163Z,4324.00
2018-04-26T09:18:37.177Z,5812.00
2018-04-26T09:19:37.203Z,10472.00
2018-04-26T09:20:37.216Z,9796.00
2018-04-26T09:21:37.231Z,7952.00
2018-04-26T09:22:37.256Z,6052.00
2018-04-26T09:23:37.270Z,5500.00
2018-04-26T09:24:37.284Z,5896.00
2018-04-26T09:25:37.321Z,8464.00
2018-04-26T09:26:37.323Z,8208.00
2018-04-26T09:27:37.337Z,7412.00
2018-04-26T09:28:37.362Z,8768.00
2018-04-26T09:29:37.380Z,10436.00
2018-04-26T09:30:37.391Z,12536.00
2018-04-26T09:31:37.417Z,14772.00
2018-04-26T09:32:37.429Z,15976.00
2018-04-26T09:33:37.455Z,16280.00
2018-04-26T09:34:37.467Z,17296.00
2018-04-26T09:35:37.485Z,18976.00
2018-04-26T09:36:37.508Z,20672.00
2018-04-26T09:37:37.520Z,22240.00
2018-04-26T09:38:37.558Z,24352.00
2018-04-26T09:39:37.549Z,27136.00
2018-04-26T09:40:37.573Z,30208.00
2018-04-26T09:41:37.590Z,33568.00
2018-04-26T09:42:37.603Z,37088.00
2018-04-26T09:43:37.626Z,40224.00
2018-04-26T09:44:37.641Z,42112.00
2018-04-26T09:45:37.668Z,42144.00
2018-04-26T09:46:37.680Z,41664.00
2018-04-26T09:47:37.699Z,41024.00
2018-04-26T09:48:37.737Z,39264.00
2018-04-26T09:49:37.733Z,36672.00
2018-04-26T09:50:37.759Z,35744.00
2018-04-26T09:51:37.774Z,34880.00
2018-04-26T09:52:37.799Z,33024.00
2018-04-26T09:53:37.812Z,33760.00
2018-04-26T09:54:37.839Z,31712.00
2018-04-26T09:55:37.852Z,30944.00
2018-04-26T09:56:37.879Z,32352.00
2018-04-26T09:57:37.894Z,32032.00
2018-04-26T09:58:37.941Z,35840.00
2018-04-26T09:59:37.931Z,32320.00
2018-04-26T10:00:37.959Z,34560.00
2018-04-26T10:01:37.989Z,38656.00
2018-04-26T10:02:37.996Z,75968.00
2018-04-26T10:03:38.023Z,79840.00
2018-04-26T10:04:38.061Z,41408.00
2018-04-26T10:05:38.063Z,44512.00
2018-04-26T10:06:38.088Z,78816.00
2018-04-26T10:07:38.101Z,50784.00
2018-04-26T10:08:38.129Z,36576.00
2018-04-26T10:09:38.152Z,52384.00
2018-04-26T10:10:38.166Z,40096.00
2018-04-26T10:11:38.192Z,29856.00
2018-04-26T10:12:38.218Z,65376.00
2018-04-26T10:13:38.231Z,48320.00
2018-04-26T10:14:38.257Z,77344.00
2018-04-26T10:15:38.282Z,55104.00
2018-04-26T10:16:38.309Z,36800.00
2018-04-26T10:17:38.324Z,33984.00
2018-04-26T10:18:38.352Z,52576.00
2018-04-26T10:19:38.375Z,78016.00
2018-04-26T10:20:38.406Z,81120.00
2018-04-26T10:21:38.425Z,84224.00
2018-04-26T10:22:38.441Z,89600.00
2018-04-26T10:23:38.465Z,91904.00
2018-04-26T10:24:38.491Z,91232.00
2018-04-26T10:25:38.517Z,92768.00
2018-04-26T10:26:38.544Z,90880.00
2018-04-26T10:27:38.569Z,88480.00
2018-04-26T10:28:38.596Z,93024.00
2018-04-26T10:29:38.621Z,102240.00
2018-04-26T10:30:38.647Z,107968.00
2018-04-26T10:31:38.673Z,54144.00
2018-04-26T10:32:38.710Z,34976.00
2018-04-26T10:33:38.724Z,18112.00
2018-04-26T10:34:38.752Z,20288.00
2018-04-26T10:35:38.778Z,16100.00
2018-04-26T10:36:38.817Z,17984.00
2018-04-26T10:37:38.845Z,30272.00
2018-04-26T10:38:38.868Z,26784.00
2018-04-26T10:39:38.894Z,18112.00
2018-04-26T10:40:38.921Z,20928.00
2018-04-26T10:41:38.946Z,71264.00
2018-04-26T10:42:38.974Z,48352.00
2018-04-26T10:43:38.998Z,43808.00
2018-04-26T10:44:39.024Z,20128.00
2018-04-26T10:45:39.051Z,108320.00
2018-04-26T10:46:39.076Z,28224.00
2018-04-26T10:47:39.102Z,34944.00
2018-04-26T10:48:39.131Z,113504.00
2018-04-26T10:49:39.159Z,39712.00
2018-04-26T10:50:39.180Z,30784.00
2018-04-26T10:51:39.206Z,38400.00
2018-04-26T10:52:39.232Z,37504.00
2018-04-26T10:53:39.261Z,107232.00
2018-04-26T10:54:39.284Z,45760.00
2018-04-26T10:55:39.310Z,28256.00
2018-04-26T10:56:39.336Z,14124.00
2018-04-26T10:57:39.362Z,18432.00
2018-04-26T10:58:39.387Z,27328.00
2018-04-26T10:59:39.418Z,29472.00
2018-04-26T11:00:39.439Z,17208.00
2018-04-26T11:01:39.470Z,11460.00
2018-04-26T11:02:39.492Z,7228.00
2018-04-26T11:03:39.518Z,6504.00
2018-04-26T11:04:39.546Z,6188.00
2018-04-26T11:05:39.570Z,5356.00
2018-04-26T11:06:39.596Z,7568.00
2018-04-26T11:07:39.622Z,12764.00
2018-04-26T11:08:39.643Z,14560.00
2018-04-26T11:09:39.674Z,11688.00
2018-04-26T11:10:39.687Z,15804.00
2018-04-26T11:11:39.789Z,26208.00
2018-04-26T11:12:39.740Z,95200.00
2018-04-26T11:13:39.766Z,97440.00
2018-04-26T11:14:39.780Z,98336.00
2018-04-26T11:15:39.831Z,97856.00
2018-04-26T11:16:39.832Z,94688.00
2018-04-26T11:17:39.859Z,95936.00
2018-04-26T11:18:39.884Z,97280.00
2018-04-26T11:19:39.898Z,98496.00
2018-04-26T11:20:39.924Z,99552.00
2018-04-26T11:21:39.962Z,100896.00
2018-04-26T11:22:39.976Z,101472.00
2018-04-26T11:23:40.018Z,103968.00
2018-04-26T11:24:40.041Z,95840.00
2018-04-26T11:25:40.067Z,107424.00
2018-04-26T11:26:40.091Z,63296.00
2018-04-26T11:27:40.118Z,35520.00
2018-04-26T11:28:40.156Z,31744.00
2018-04-26T11:29:40.183Z,30592.00
2018-04-26T11:30:40.209Z,47200.00
2018-04-26T11:31:40.233Z,113152.00
2018-04-26T11:32:40.272Z,61792.00
2018-04-26T11:33:40.299Z,24480.00
2018-04-26T11:34:40.325Z,15396.00
2018-04-26T11:35:40.353Z,10688.00
2018-04-26T11:36:40.389Z,7104.00
2018-04-26T11:37:40.415Z,4840.00
2018-04-26T11:38:40.442Z,3756.00
2018-04-26T11:39:40.467Z,3200.00
2018-04-26T11:40:40.492Z,3048.00
2018-04-26T11:41:40.521Z,4556.00
2018-04-26T11:42:40.546Z,7516.00
2018-04-26T11:43:40.572Z,8764.00
2018-04-26T11:44:40.619Z,8736.00
2018-04-26T11:45:40.623Z,7752.00
2018-04-26T11:46:40.733Z,7456.00
2018-04-26T11:47:40.675Z,8148.00
2018-04-26T11:48:40.701Z,9764.00
2018-04-26T11:49:40.727Z,14328.00
2018-04-26T11:50:40.753Z,21056.00
2018-04-26T11:51:40.780Z,17228.00
2018-04-26T11:52:40.806Z,106080.00
2018-04-26T11:53:40.832Z,113280.00
2018-04-26T11:54:40.846Z,115360.00
2018-04-26T11:55:40.874Z,112672.00
2018-04-26T11:56:40.897Z,112096.00
2018-04-26T11:57:40.927Z,47360.00
2018-04-26T11:58:40.950Z,106912.00
2018-04-26T11:59:40.977Z,20256.00
2018-04-26T12:00:41.002Z,21056.00
2018-04-26T12:01:41.028Z,22368.00
2018-04-26T12:02:41.104Z,18112.00
2018-04-26T12:03:41.084Z,16544.00
2018-04-26T12:04:41.106Z,19872.00
2018-04-26T12:05:41.131Z,37088.00
2018-04-26T12:06:41.159Z,45376.00
2018-04-26T12:07:41.265Z,31168.00
2018-04-26T12:08:41.210Z,26816.00
2018-04-26T12:09:41.235Z,22944.00
2018-04-26T12:10:41.250Z,19360.00
2018-04-26T12:11:41.288Z,15068.00
2018-04-26T12:12:41.380Z,12200.00
2018-04-26T12:13:41.327Z,16744.00
2018-04-26T12:14:41.356Z,98784.00
2018-04-26T12:15:41.379Z,111744.00
2018-04-26T12:16:41.405Z,25216.00
2018-04-26T12:17:41.431Z,97120.00
2018-04-26T12:18:41.457Z,90688.00